Time;durP1;ratioP1;P1;durP2;ratioP2;P2;SDS_P1;SDS_P2;PMS_P1;PMS_P2;Temp;Humidity;BMP_temperature;BMP_pressure;BME280_temperature;BME280_humidity;BME280_pressure;Samples;Min_cycle;Max_cycle;Signal;HPM_P1;HPM_P2
2021/12/12 00:02:26;;;;;;;9.55;3.97;;;3.70;99.90;;;;;;4993112;28;20038;-47
2021/12/12 00:04:54;;;;;;;11.30;4.88;;;3.60;99.90;;;;;;4995309;28;20030;-49
2021/12/12 00:07:24;;;;;;;13.73;5.72;;;3.60;99.90;;;;;;4995446;28;20484;-50
2021/12/12 00:09:55;;;;;;;8.13;4.75;;;3.70;99.90;;;;;;4995171;28;20034;-47
2021/12/12 00:12:25;;;;;;;14.07;5.18;;;3.70;99.90;;;;;;4995411;28;20094;-49
2021/12/12 00:14:51;;;;;;;22.55;5.25;;;3.60;99.90;;;;;;4995171;28;20021;-53
2021/12/12 00:17:18;;;;;;;10.63;4.30;;;3.60;99.90;;;;;;4994953;28;20413;-51
2021/12/12 00:19:44;;;;;;;12.43;5.07;;;3.70;99.90;;;;;;4994724;28;20105;-49
2021/12/12 00:22:14;;;;;;;10.93;5.57;;;3.60;99.90;;;;;;4995080;28;20034;-48
2021/12/12 00:24:41;;;;;;;12.52;5.57;;;3.70;99.90;;;;;;4993627;28;20034;-50
2021/12/12 00:27:07;;;;;;;14.02;5.32;;;3.70;99.90;;;;;;4995106;28;20037;-50
2021/12/12 00:29:34;;;;;;;12.38;6.03;;;3.70;99.90;;;;;;4994622;28;20026;-54
2021/12/12 00:32:03;;;;;;;11.35;5.57;;;3.70;99.90;;;;;;4993655;28;20504;-49
2021/12/12 00:34:32;;;;;;;19.15;6.25;;;3.60;99.90;;;;;;4994745;28;20033;-52
2021/12/12 00:36:58;;;;;;;9.82;6.20;;;3.60;99.90;;;;;;4994844;28;20018;-49
2021/12/12 00:39:28;;;;;;;15.95;6.53;;;3.60;99.90;;;;;;4994660;28;20035;-52
2021/12/12 00:41:59;;;;;;;13.98;5.45;;;3.60;99.90;;;;;;4994715;28;20031;-51
2021/12/12 00:44:26;;;;;;;9.23;5.97;;;3.60;99.90;;;;;;4994633;28;20027;-51
2021/12/12 00:46:53;;;;;;;15.93;5.95;;;3.60;99.90;;;;;;4994511;28;20068;-50
2021/12/12 00:49:19;;;;;;;17.48;6.28;;;3.60;99.90;;;;;;4994565;28;20030;-51
2021/12/12 00:51:46;;;;;;;13.85;6.40;;;3.60;99.90;;;;;;4996186;28;20028;-50
2021/12/12 00:54:15;;;;;;;10.30;5.95;;;3.60;99.90;;;;;;4994702;28;20587;-51
2021/12/12 00:56:42;;;;;;;23.77;7.40;;;3.50;99.90;;;;;;4994652;28;20026;-48
2021/12/12 00:59:09;;;;;;;10.18;5.40;;;3.50;99.90;;;;;;4994327;28;20026;-52
2021/12/12 01:01:48;;;;;;;454.23;256.35;;;3.50;99.90;;;;;;4994463;28;20049;-48
2021/12/12 01:04:25;;;;;;;96.13;53.58;;;3.50;99.90;;;;;;4994499;28;20400;-48
2021/12/12 01:06:53;;;;;;;14.77;9.05;;;3.40;99.90;;;;;;4994481;28;20443;-47
2021/12/12 01:09:26;;;;;;;10.30;5.55;;;3.50;99.90;;;;;;4993920;28;20112;-49
2021/12/12 01:11:55;;;;;;;16.23;7.45;;;3.40;99.90;;;;;;4994873;28;20029;-52
2021/12/12 01:14:26;;;;;;;17.92;6.10;;;3.30;99.90;;;;;;4994673;28;20480;-47
2021/12/12 01:17:06;;;;;;;15.00;5.90;;;3.30;99.90;;;;;;4994214;28;20034;-51
2021/12/12 01:19:41;;;;;;;14.25;6.78;;;3.30;99.90;;;;;;4993962;28;20026;-50
2021/12/12 01:22:15;;;;;;;12.20;6.27;;;3.20;99.90;;;;;;4994202;28;20034;-49
2021/12/12 01:24:45;;;;;;;16.83;7.10;;;3.30;99.90;;;;;;4994115;28;20026;-51
2021/12/12 01:27:12;;;;;;;18.95;6.90;;;3.30;99.90;;;;;;4994306;28;20396;-49
2021/12/12 01:29:39;;;;;;;19.30;7.15;;;3.30;99.90;;;;;;4993827;28;20022;-53
2021/12/12 01:32:12;;;;;;;20.02;8.15;;;3.30;99.90;;;;;;4994028;28;20036;-52
2021/12/12 01:34:39;;;;;;;14.15;6.85;;;3.30;99.90;;;;;;4993730;28;20070;-51
2021/12/12 01:39:51;;;;;;;18.90;7.43;;;3.20;99.90;;;;;;4993810;28;20105;-51
2021/12/12 01:42:26;;;;;;;15.05;7.93;;;3.20;99.90;;;;;;4993817;28;20014;-51
2021/12/12 01:45:05;;;;;;;14.50;7.40;;;3.20;99.90;;;;;;4993728;28;20493;-52
2021/12/12 01:47:31;;;;;;;15.48;8.80;;;3.20;99.90;;;;;;4993728;28;20038;-52
2021/12/12 01:50:02;;;;;;;15.13;7.97;;;3.20;99.90;;;;;;4993252;28;20289;-50
2021/12/12 01:52:29;;;;;;;13.85;8.15;;;3.10;99.90;;;;;;4993755;28;20026;-50
2021/12/12 01:55:04;;;;;;;17.58;8.10;;;3.10;99.90;;;;;;4993559;28;20030;-50
2021/12/12 01:57:35;;;;;;;22.33;8.30;;;3.20;99.90;;;;;;4993643;28;20046;-47
2021/12/12 02:00:18;;;;;;;15.32;7.43;;;3.20;99.90;;;;;;4993317;28;20124;-53
2021/12/12 02:02:44;;;;;;;14.90;7.65;;;3.10;99.90;;;;;;4993427;28;20485;-49
2021/12/12 02:05:15;;;;;;;18.00;8.13;;;3.10;99.90;;;;;;4993219;28;20030;-49
2021/12/12 02:07:43;;;;;;;26.33;9.13;;;3.10;99.90;;;;;;4993204;28;20028;-53
2021/12/12 02:10:17;;;;;;;17.45;7.40;;;3.10;99.90;;;;;;4992862;28;20428;-48
2021/12/12 02:12:43;;;;;;;14.50;8.63;;;3.00;99.90;;;;;;4993289;28;20041;-51
2021/12/12 02:15:12;;;;;;;14.93;7.72;;;3.10;99.90;;;;;;4993021;28;20026;-50
2021/12/12 02:17:43;;;;;;;20.90;8.20;;;3.10;99.90;;;;;;4992461;28;20022;-50
2021/12/12 02:20:33;;;;;;;18.15;8.25;;;3.10;99.90;;;;;;4992873;28;20046;-49
2021/12/12 02:23:31;;;;;;;19.17;8.10;;;3.00;99.90;;;;;;4992407;28;20049;-47
2021/12/12 02:37:00;;;;;;;11.95;6.72;;;2.90;99.90;;;;;;4993194;28;20025;-50
2021/12/12 02:39:26;;;;;;;14.65;6.70;;;2.90;99.90;;;;;;4992616;28;20042;-48
2021/12/12 02:41:56;;;;;;;17.92;6.75;;;2.90;99.90;;;;;;4992596;28;20019;-49
2021/12/12 02:44:28;;;;;;;16.73;7.15;;;2.90;99.90;;;;;;4992658;28;20026;-48
2021/12/12 02:46:58;;;;;;;16.08;6.53;;;3.00;99.90;;;;;;4992684;28;20062;-48
2021/12/12 02:49:43;;;;;;;16.92;7.50;;;3.00;99.90;;;;;;4992196;28;20029;-49
2021/12/12 02:52:16;;;;;;;14.20;7.85;;;2.90;99.90;;;;;;4992674;28;20026;-47
2021/12/12 02:54:43;;;;;;;19.85;7.88;;;3.00;99.90;;;;;;4992604;28;20022;-47
2021/12/12 02:57:09;;;;;;;16.65;6.93;;;2.90;99.90;;;;;;4992487;28;20026;-51
2021/12/12 02:59:37;;;;;;;14.68;6.00;;;3.00;99.90;;;;;;4992164;28;20057;-50
2021/12/12 03:02:08;;;;;;;18.52;7.22;;;3.00;99.90;;;;;;4992509;28;20031;-48
2021/12/12 03:04:34;;;;;;;13.00;6.65;;;2.90;99.90;;;;;;4992300;28;20030;-53
2021/12/12 03:07:00;;;;;;;14.80;7.25;;;2.80;99.90;;;;;;4992487;28;20026;-49
2021/12/12 03:09:36;;;;;;;16.90;7.35;;;2.80;99.90;;;;;;4991994;28;20070;-51
2021/12/12 03:12:11;;;;;;;13.85;6.68;;;2.80;99.90;;;;;;4992428;28;20397;-48
2021/12/12 03:14:38;;;;;;;20.67;6.80;;;2.70;99.90;;;;;;4992255;28;20034;-49
2021/12/12 03:17:08;;;;;;;14.25;7.40;;;2.70;99.90;;;;;;4992241;28;20268;-49
2021/12/12 03:19:36;;;;;;;11.68;6.07;;;2.70;99.90;;;;;;4991939;28;20033;-47
2021/12/12 03:22:02;;;;;;;16.40;6.65;;;2.60;99.90;;;;;;4992206;28;20169;-50
2021/12/12 03:24:28;;;;;;;20.85;6.95;;;2.60;99.90;;;;;;4991157;28;20113;-47
2021/12/12 03:26:57;;;;;;;12.50;6.68;;;2.70;99.90;;;;;;4992276;28;20551;-47
2021/12/12 03:29:24;;;;;;;15.95;6.47;;;2.70;99.90;;;;;;4991770;28;20037;-50
2021/12/12 03:32:05;;;;;;;20.27;7.72;;;2.60;99.90;;;;;;4992092;28;20069;-52
2021/12/12 03:34:34;;;;;;;10.73;5.78;;;2.60;99.90;;;;;;4995510;28;20025;-51
2021/12/12 03:37:02;;;;;;;20.17;6.57;;;2.60;99.90;;;;;;4996174;28;20038;-48
2021/12/12 03:39:31;;;;;;;14.18;6.72;;;2.50;99.90;;;;;;4995744;28;20037;-49
2021/12/12 03:42:04;;;;;;;13.82;6.28;;;2.60;99.90;;;;;;4995830;28;20026;-48
2021/12/12 03:44:33;;;;;;;9.63;5.80;;;2.60;99.90;;;;;;4995746;28;20092;-50
2021/12/12 03:47:22;;;;;;;14.50;6.15;;;2.60;99.90;;;;;;4995725;28;20019;-47
2021/12/12 03:49:48;;;;;;;14.65;5.97;;;2.60;99.90;;;;;;4995412;28;20034;-46
2021/12/12 03:52:17;;;;;;;13.05;6.53;;;2.60;99.90;;;;;;4995661;28;20026;-53
2021/12/12 03:54:43;;;;;;;12.73;5.72;;;2.50;99.90;;;;;;4995636;28;20106;-48
2021/12/12 03:57:09;;;;;;;9.57;6.55;;;2.60;99.90;;;;;;4995647;28;20102;-52
2021/12/12 03:59:35;;;;;;;16.48;5.57;;;2.60;99.90;;;;;;4995394;28;20042;-50
2021/12/12 04:02:01;;;;;;;14.52;6.03;;;2.70;99.90;;;;;;4995554;28;20052;-49
2021/12/12 04:04:31;;;;;;;9.77;5.25;;;2.80;99.90;;;;;;4995461;28;20091;-48
2021/12/12 04:06:57;;;;;;;11.18;5.78;;;2.70;99.90;;;;;;4995413;28;20026;-47
2021/12/12 04:09:23;;;;;;;9.93;6.07;;;2.80;99.90;;;;;;4995004;28;20034;-48
2021/12/12 04:12:01;;;;;;;14.70;5.47;;;2.70;99.90;;;;;;4995369;28;20025;-48
2021/12/12 04:14:28;;;;;;;7.38;5.28;;;2.80;99.90;;;;;;4995292;28;20033;-49
2021/12/12 04:16:57;;;;;;;13.82;5.13;;;2.70;99.90;;;;;;4995331;28;20061;-50
2021/12/12 04:19:23;;;;;;;8.48;5.50;;;2.70;99.90;;;;;;4995218;28;20496;-47
2021/12/12 04:21:50;;;;;;;8.30;5.50;;;2.70;99.90;;;;;;4993998;28;20034;-48
2021/12/12 04:24:23;;;;;;;15.18;6.00;;;2.70;99.90;;;;;;4995095;28;20038;-46
2021/12/12 04:26:49;;;;;;;12.13;5.18;;;2.70;99.90;;;;;;4995059;28;20487;-49
2021/12/12 04:29:22;;;;;;;14.70;5.78;;;2.60;99.90;;;;;;4993521;28;20073;-47
2021/12/12 04:31:54;;;;;;;11.80;5.10;;;2.60;99.90;;;;;;4994929;28;20038;-48
2021/12/12 04:34:23;;;;;;;15.95;6.10;;;2.60;99.90;;;;;;4994855;28;20065;-46
2021/12/12 04:36:49;;;;;;;15.80;5.70;;;2.60;99.90;;;;;;4993817;28;20022;-50
2021/12/12 04:39:18;;;;;;;9.07;6.13;;;2.50;99.90;;;;;;4994817;28;20037;-51
2021/12/12 04:41:46;;;;;;;16.50;7.60;;;2.60;99.90;;;;;;4995236;28;20492;-48
2021/12/12 04:44:12;;;;;;;14.68;5.72;;;2.60;99.90;;;;;;4994226;28;20034;-46
2021/12/12 04:50:03;;;;;;;11.07;6.00;;;2.60;99.90;;;;;;4994066;28;20093;-48
2021/12/12 04:53:01;;;;;;;14.93;6.80;;;2.60;99.90;;;;;;4994776;28;20038;-49
2021/12/12 04:55:54;;;;;;;14.15;5.97;;;2.60;99.90;;;;;;4994786;28;20027;-48
2021/12/12 04:58:35;;;;;;;17.77;5.60;;;2.70;99.90;;;;;;4993474;28;20365;-47
2021/12/12 05:01:06;;;;;;;12.68;5.95;;;2.70;99.90;;;;;;4994324;28;20024;-50
2021/12/12 05:04:00;;;;;;;8.35;5.22;;;2.70;99.90;;;;;;4993477;28;20085;-49
2021/12/12 05:06:40;;;;;;;12.57;5.47;;;2.70;99.90;;;;;;4994218;28;20038;-49
2021/12/12 05:09:13;;;;;;;13.20;6.50;;;2.80;99.90;;;;;;4992924;28;20038;-48
2021/12/12 05:11:51;;;;;;;11.30;5.47;;;2.80;99.90;;;;;;4994415;28;20448;-49
2021/12/12 05:14:22;;;;;;;13.88;5.55;;;2.80;99.90;;;;;;4994355;28;20018;-48
2021/12/12 05:16:52;;;;;;;16.42;5.30;;;2.80;99.90;;;;;;4993987;28;20398;-49
2021/12/12 05:19:24;;;;;;;9.43;4.68;;;2.80;99.90;;;;;;4993890;28;20028;-49
2021/12/12 05:21:55;;;;;;;11.13;5.25;;;2.90;99.90;;;;;;4994121;28;20117;-52
2021/12/12 05:24:24;;;;;;;11.52;5.30;;;2.80;99.90;;;;;;4994092;28;20054;-47
2021/12/12 05:26:56;;;;;;;10.35;5.18;;;2.90;99.90;;;;;;4994257;28;20022;-50
2021/12/12 05:29:45;;;;;;;14.45;5.28;;;2.80;99.90;;;;;;4994267;28;20030;-52
2021/12/12 05:32:13;;;;;;;17.95;6.20;;;2.70;99.90;;;;;;4994474;28;20030;-48
2021/12/12 05:34:41;;;;;;;10.85;4.30;;;2.70;99.90;;;;;;4993864;28;20452;-48
2021/12/12 05:37:10;;;;;;;12.30;6.40;;;2.70;99.90;;;;;;4994023;28;20108;-47
2021/12/12 05:39:37;;;;;;;14.77;5.05;;;2.80;99.90;;;;;;4993549;28;20050;-49
2021/12/12 05:42:04;;;;;;;11.77;5.95;;;2.70;99.90;;;;;;4993825;28;20045;-50
2021/12/12 05:44:30;;;;;;;9.27;5.13;;;2.70;99.90;;;;;;4993624;28;20034;-46
2021/12/12 05:47:02;;;;;;;12.90;5.57;;;2.70;99.90;;;;;;4993550;28;20030;-49
2021/12/12 05:49:28;;;;;;;12.50;5.38;;;2.70;99.90;;;;;;4993165;28;20592;-46
2021/12/12 05:51:55;;;;;;;11.50;5.10;;;2.70;99.90;;;;;;4993636;28;20084;-48
2021/12/12 05:54:23;;;;;;;14.55;6.32;;;2.70;99.90;;;;;;4992120;28;20038;-47
2021/12/12 05:56:49;;;;;;;11.77;5.45;;;2.70;99.90;;;;;;4993470;28;20492;-49
2021/12/12 05:59:15;;;;;;;11.35;4.85;;;2.70;99.90;;;;;;4993117;28;20461;-53
2021/12/12 06:01:42;;;;;;;12.75;5.28;;;2.70;99.90;;;;;;4992008;28;20069;-48
2021/12/12 06:04:08;;;;;;;11.52;4.95;;;2.70;99.90;;;;;;4993245;28;20034;-49
2021/12/12 06:06:41;;;;;;;9.85;4.93;;;2.80;99.90;;;;;;4993224;28;20026;-49
2021/12/12 06:09:09;;;;;;;11.93;5.40;;;2.80;99.90;;;;;;4993001;28;20057;-54
2021/12/12 06:11:42;;;;;;;12.18;5.32;;;2.80;99.90;;;;;;4993361;28;20034;-48
2021/12/12 06:14:09;;;;;;;11.80;5.30;;;2.90;99.90;;;;;;4992991;28;20043;-50
2021/12/12 06:16:36;;;;;;;9.43;4.63;;;2.80;99.90;;;;;;4992988;28;20053;-46
2021/12/12 06:19:05;;;;;;;14.73;5.95;;;2.90;99.90;;;;;;4993121;28;20026;-48
2021/12/12 06:21:31;;;;;;;10.68;5.03;;;2.90;99.90;;;;;;4993505;28;20109;-49
2021/12/12 06:23:58;;;;;;;12.68;5.78;;;2.90;99.90;;;;;;4992913;28;20061;-50
2021/12/12 06:26:24;;;;;;;17.70;6.38;;;3.00;99.90;;;;;;4992829;28;20088;-47
2021/12/12 06:28:50;;;;;;;9.93;5.35;;;2.90;99.90;;;;;;4992845;28;20427;-48
2021/12/12 06:31:17;;;;;;;14.25;6.25;;;2.90;99.90;;;;;;4992547;28;20476;-48
2021/12/12 06:33:42;;;;;;;13.30;5.05;;;2.90;99.90;;;;;;4993382;28;20036;-47
2021/12/12 06:36:10;;;;;;;19.42;5.70;;;2.90;99.90;;;;;;4993085;28;20121;-47
2021/12/12 06:38:39;;;;;;;11.25;5.55;;;2.90;99.90;;;;;;4992551;28;20022;-49
2021/12/12 06:41:06;;;;;;;13.10;4.90;;;2.90;99.90;;;;;;4992512;28;20034;-46
2021/12/12 06:43:32;;;;;;;6.85;5.45;;;2.80;99.90;;;;;;4992668;28;20026;-47
2021/12/12 06:45:59;;;;;;;16.20;6.40;;;2.80;99.90;;;;;;4992863;28;20031;-49
2021/12/12 06:48:24;;;;;;;10.38;5.28;;;2.90;99.90;;;;;;4992485;28;20030;-49
2021/12/12 06:50:53;;;;;;;15.48;6.00;;;2.80;99.90;;;;;;4992312;28;20026;-48
2021/12/12 06:53:22;;;;;;;16.05;5.55;;;2.90;99.90;;;;;;4993440;28;20037;-48
2021/12/12 06:55:48;;;;;;;11.23;5.65;;;2.90;99.90;;;;;;4992305;28;20022;-48
2021/12/12 06:58:16;;;;;;;11.40;6.30;;;2.90;99.90;;;;;;4992467;28;20027;-50
2021/12/12 07:00:44;;;;;;;11.18;7.00;;;2.90;99.90;;;;;;4992230;28;20026;-51
2021/12/12 07:03:14;;;;;;;11.70;6.10;;;2.90;99.90;;;;;;4992395;28;20435;-50
2021/12/12 07:05:40;;;;;;;13.75;7.07;;;2.90;99.90;;;;;;4990810;28;20061;-47
2021/12/12 07:08:06;;;;;;;11.82;5.82;;;3.00;99.90;;;;;;4991828;28;20109;-48
2021/12/12 07:10:33;;;;;;;13.25;6.32;;;3.00;99.90;;;;;;4992032;28;20033;-47
2021/12/12 07:12:59;;;;;;;13.30;6.88;;;3.00;99.90;;;;;;4992400;28;20495;-53
2021/12/12 07:15:35;;;;;;;11.95;6.57;;;3.00;99.90;;;;;;4992160;28;20026;-50
2021/12/12 07:18:07;;;;;;;14.55;7.43;;;3.00;99.90;;;;;;4992074;28;20559;-48
2021/12/12 07:20:33;;;;;;;15.02;6.80;;;3.00;99.90;;;;;;4991870;28;20042;-48
2021/12/12 07:23:02;;;;;;;10.77;6.63;;;3.10;99.90;;;;;;4992210;28;20041;-47
2021/12/12 07:25:28;;;;;;;10.57;6.63;;;3.10;99.90;;;;;;4991979;28;20030;-49
2021/12/12 07:27:54;;;;;;;13.07;6.63;;;3.10;99.90;;;;;;4991971;28;20037;-48
2021/12/12 07:30:20;;;;;;;11.90;6.68;;;3.10;99.90;;;;;;4991776;28;20090;-49
2021/12/12 07:32:46;;;;;;;12.38;6.90;;;3.10;99.90;;;;;;4992045;28;20532;-52
2021/12/12 07:35:15;;;;;;;12.45;6.97;;;3.10;99.90;;;;;;4992042;28;20042;-49
2021/12/12 07:37:42;;;;;;;13.57;7.95;;;3.10;99.90;;;;;;4992017;28;20480;-49
2021/12/12 07:40:09;;;;;;;15.50;7.40;;;3.10;99.90;;;;;;4991823;28;20061;-48
2021/12/12 07:42:36;;;;;;;11.90;7.15;;;3.20;99.90;;;;;;4992238;28;20022;-49
2021/12/12 07:45:04;;;;;;;14.55;7.88;;;3.20;99.90;;;;;;4991782;28;20388;-49
2021/12/12 07:47:31;;;;;;;17.65;7.50;;;3.10;99.90;;;;;;4991982;28;20026;-47
2021/12/12 07:49:57;;;;;;;17.10;7.43;;;3.10;99.90;;;;;;4991543;28;20459;-47
2021/12/12 07:52:26;;;;;;;14.48;6.72;;;3.00;99.90;;;;;;4991932;28;20097;-49
2021/12/12 07:54:53;;;;;;;15.68;7.82;;;3.10;99.90;;;;;;4991746;28;20070;-47
2021/12/12 07:57:21;;;;;;;16.83;7.00;;;3.20;99.90;;;;;;4991753;28;20034;-48
2021/12/12 07:59:49;;;;;;;18.30;7.57;;;3.10;99.90;;;;;;4991435;28;20114;-49
2021/12/12 08:02:16;;;;;;;10.35;6.65;;;3.20;99.90;;;;;;4991737;28;20030;-48
2021/12/12 08:04:43;;;;;;;10.85;6.35;;;3.20;99.90;;;;;;4991672;28;20033;-49
2021/12/12 08:07:12;;;;;;;12.95;7.47;;;3.30;99.90;;;;;;4991743;28;20365;-47
2021/12/12 08:09:42;;;;;;;12.32;6.97;;;3.30;99.90;;;;;;4989614;28;20066;-47
2021/12/12 08:12:13;;;;;;;15.77;6.90;;;3.40;99.90;;;;;;4999034;28;20026;-46
2021/12/12 08:14:40;;;;;;;15.43;6.75;;;3.40;99.90;;;;;;4991423;28;20434;-46
2021/12/12 08:17:07;;;;;;;13.32;8.35;;;3.40;99.90;;;;;;4991213;28;20022;-48
2021/12/12 08:19:33;;;;;;;12.13;7.95;;;3.50;99.90;;;;;;4991662;28;20035;-49
2021/12/12 08:22:05;;;;;;;15.60;8.10;;;3.50;99.90;;;;;;4994749;28;20076;-46
2021/12/12 08:24:32;;;;;;;17.48;7.80;;;3.50;99.90;;;;;;4994521;28;20053;-47
2021/12/12 08:26:58;;;;;;;11.60;7.70;;;3.50;99.90;;;;;;4993967;28;20400;-48
2021/12/12 08:29:25;;;;;;;20.55;7.93;;;3.60;99.90;;;;;;4980177;28;20019;-50
2021/12/12 08:31:51;;;;;;;11.90;6.75;;;3.60;99.90;;;;;;4977258;28;20022;-47
2021/12/12 08:34:17;;;;;;;11.10;7.53;;;3.50;99.90;;;;;;4994839;28;20043;-47
2021/12/12 08:36:46;;;;;;;15.20;8.10;;;3.70;99.90;;;;;;4994806;28;20061;-48
2021/12/12 08:39:13;;;;;;;17.27;7.00;;;3.60;99.90;;;;;;4993338;28;20022;-48
2021/12/12 08:41:41;;;;;;;14.38;6.65;;;3.60;99.90;;;;;;4994906;28;20030;-49
2021/12/12 08:44:10;;;;;;;12.65;7.00;;;3.70;99.90;;;;;;4994733;28;20030;-47
2021/12/12 08:46:39;;;;;;;14.38;7.68;;;3.70;99.90;;;;;;4982814;28;20026;-46
2021/12/12 08:49:05;;;;;;;10.45;6.95;;;3.80;99.90;;;;;;4974991;28;20034;-49
2021/12/12 08:51:35;;;;;;;13.85;7.13;;;3.80;99.90;;;;;;4988443;28;20500;-49
2021/12/12 08:54:13;;;;;;;13.38;7.75;;;3.80;99.90;;;;;;4992343;28;20041;-52
2021/12/12 08:56:48;;;;;;;13.27;7.28;;;3.90;99.90;;;;;;4994577;28;20072;-49
2021/12/12 08:59:25;;;;;;;15.07;7.32;;;3.90;99.90;;;;;;4994438;28;20030;-48
2021/12/12 09:01:54;;;;;;;14.40;8.13;;;3.90;99.90;;;;;;4994505;28;20030;-49
2021/12/12 09:04:20;;;;;;;13.55;7.60;;;3.90;99.90;;;;;;4994308;28;20480;-51
2021/12/12 09:07:18;;;;;;;11.95;7.50;;;4.00;99.90;;;;;;4992738;28;20077;-48
2021/12/12 09:09:49;;;;;;;16.13;7.18;;;4.00;99.90;;;;;;4992138;28;20034;-52
2021/12/12 09:12:21;;;;;;;13.10;8.43;;;4.10;99.90;;;;;;4994371;28;20021;-51
2021/12/12 09:14:54;;;;;;;15.23;7.63;;;4.00;99.90;;;;;;4994313;28;20030;-48
2021/12/12 09:17:28;;;;;;;11.40;7.10;;;4.10;99.90;;;;;;4994193;28;20495;-51
2021/12/12 09:20:06;;;;;;;13.05;7.90;;;4.10;99.90;;;;;;4994005;28;20030;-47
2021/12/12 09:22:37;;;;;;;17.80;7.90;;;4.10;99.90;;;;;;4994000;28;20027;-52
2021/12/12 09:25:12;;;;;;;12.05;7.57;;;4.20;99.90;;;;;;4994216;28;20026;-49
2021/12/12 09:27:53;;;;;;;17.10;7.85;;;4.10;99.90;;;;;;4994003;28;20034;-50
2021/12/12 09:30:23;;;;;;;16.23;8.18;;;4.20;99.90;;;;;;4993260;28;20030;-52
2021/12/12 09:32:54;;;;;;;17.45;8.50;;;4.20;99.90;;;;;;4993895;28;20400;-51
2021/12/12 09:35:40;;;;;;;18.30;8.65;;;4.40;99.90;;;;;;4993731;28;20064;-50
2021/12/12 09:38:28;;;;;;;15.13;8.02;;;4.40;99.90;;;;;;4993938;28;20088;-47
2021/12/12 09:41:09;;;;;;;14.25;8.32;;;4.40;99.90;;;;;;4992414;28;20407;-50
2021/12/12 09:44:07;;;;;;;17.60;8.45;;;4.40;99.90;;;;;;4994294;28;20022;-47
2021/12/12 09:47:12;;;;;;;19.10;10.02;;;4.40;99.90;;;;;;4994251;28;20464;-51
2021/12/12 09:53:40;;;;;;;16.85;10.02;;;4.40;99.90;;;;;;4992776;28;20291;-48
2021/12/12 09:56:14;;;;;;;11.02;8.25;;;4.40;99.90;;;;;;4993382;28;20100;-50
2021/12/12 09:58:40;;;;;;;18.63;9.88;;;4.40;99.90;;;;;;4993245;28;20443;-49
2021/12/12 10:01:20;;;;;;;16.70;8.20;;;4.40;99.90;;;;;;4993000;28;20034;-49
2021/12/12 10:04:02;;;;;;;15.80;8.70;;;4.40;99.90;;;;;;4993311;28;20061;-52
2021/12/12 10:06:58;;;;;;;16.42;9.38;;;4.40;99.90;;;;;;4992758;28;20095;-49
2021/12/12 10:09:34;;;;;;;13.32;8.02;;;4.40;99.90;;;;;;4992888;28;20030;-49
2021/12/12 10:12:08;;;;;;;;;;;4.40;99.90;;;;;;4993155;28;20022;-50
2021/12/12 10:14:43;;;;;;;15.07;8.32;;;4.50;99.90;;;;;;4992898;28;19909;-49
2021/12/12 10:17:36;;;;;;;18.75;9.02;;;4.60;99.90;;;;;;4992762;28;20022;-46
2021/12/12 10:20:10;;;;;;;14.43;7.95;;;4.60;99.90;;;;;;4992622;28;20077;-51
2021/12/12 10:23:13;;;;;;;14.77;8.57;;;4.70;99.90;;;;;;4988975;28;20034;-52
2021/12/12 10:25:44;;;;;;;16.83;7.55;;;4.80;99.90;;;;;;4991992;28;20022;-54
2021/12/12 10:28:19;;;;;;;14.55;8.25;;;4.80;99.90;;;;;;4992689;28;20022;-55
2021/12/12 10:31:01;;;;;;;11.43;7.50;;;4.80;99.90;;;;;;4992404;28;20369;-53
2021/12/12 10:33:48;;;;;;;14.15;7.90;;;4.90;99.90;;;;;;4992765;28;20030;-55
2021/12/12 10:36:19;;;;;;;11.15;6.15;;;5.00;99.90;;;;;;4992444;28;20038;-56
2021/12/12 10:38:53;;;;;;;10.38;7.03;;;5.00;99.90;;;;;;4991081;28;20408;-54
2021/12/12 10:41:38;;;;;;;11.07;6.93;;;5.00;99.90;;;;;;4992342;28;20030;-56
2021/12/12 10:44:12;;;;;;;17.05;6.15;;;5.00;99.90;;;;;;4992096;28;20388;-52
2021/12/12 10:46:43;;;;;;;13.18;7.57;;;5.00;99.90;;;;;;4992375;28;20030;-54
2021/12/12 10:49:22;;;;;;;10.93;7.20;;;5.10;99.90;;;;;;4991530;28;20069;-55
2021/12/12 10:52:02;;;;;;;13.02;6.68;;;5.10;99.90;;;;;;4991402;28;20376;-55
2021/12/12 10:54:42;;;;;;;9.45;6.40;;;5.10;99.90;;;;;;4981084;28;20022;-51
2021/12/12 10:57:13;;;;;;;13.30;6.78;;;5.20;99.90;;;;;;4990233;28;20472;-54
2021/12/12 10:59:52;;;;;;;11.85;8.07;;;5.20;99.90;;;;;;4991441;28;20034;-55
2021/12/12 11:02:21;;;;;;;13.60;8.02;;;5.20;99.90;;;;;;4991890;28;20060;-54
2021/12/12 11:05:11;;;;;;;10.57;7.97;;;5.20;99.90;;;;;;4992085;28;20041;-52
2021/12/12 11:07:54;;;;;;;19.35;8.88;;;5.30;99.90;;;;;;4988750;28;20153;-53
2021/12/12 11:10:33;;;;;;;14.82;7.63;;;5.40;99.90;;;;;;4991545;28;20030;-53
2021/12/12 11:13:04;;;;;;;11.40;7.75;;;5.40;99.90;;;;;;4992293;28;20069;-54
2021/12/12 11:15:53;;;;;;;12.52;7.80;;;5.40;99.90;;;;;;4989874;28;20037;-54
2021/12/12 11:18:46;;;;;;;18.55;8.32;;;5.30;99.90;;;;;;4991795;28;20504;-53
2021/12/12 11:21:27;;;;;;;13.95;7.72;;;5.30;99.90;;;;;;4972524;28;20057;-54
2021/12/12 11:23:58;;;;;;;19.38;7.38;;;5.30;99.90;;;;;;4992137;28;20463;-55
2021/12/12 11:26:40;;;;;;;16.58;7.65;;;5.30;99.90;;;;;;4991765;28;20026;-53
2021/12/12 11:29:23;;;;;;;16.42;8.63;;;5.40;99.90;;;;;;4991928;28;20400;-54
2021/12/12 11:32:00;;;;;;;13.88;8.45;;;5.40;99.90;;;;;;4991488;28;20497;-52
2021/12/12 11:34:27;;;;;;;13.18;7.65;;;5.40;99.90;;;;;;4991969;28;20046;-53
2021/12/12 11:37:15;;;;;;;15.30;7.38;;;5.50;99.90;;;;;;4991879;28;20616;-52
2021/12/12 11:39:52;;;;;;;14.00;7.93;;;5.50;99.90;;;;;;4991616;28;20097;-52
2021/12/12 11:42:26;;;;;;;13.02;7.15;;;5.50;99.90;;;;;;4991427;28;20050;-53
2021/12/12 11:45:01;;;;;;;12.43;7.55;;;5.60;99.90;;;;;;4990713;28;20459;-51
2021/12/12 11:47:46;;;;;;;12.90;6.77;;;5.60;99.90;;;;;;4990696;28;20034;-49
2021/12/12 11:50:41;;;;;;;11.75;6.82;;;5.60;99.90;;;;;;4990832;28;20062;-52
2021/12/12 11:53:23;;;;;;;12.20;7.60;;;5.60;99.90;;;;;;4991710;28;20480;-50
2021/12/12 11:56:17;;;;;;;14.15;8.65;;;5.70;99.90;;;;;;4995074;28;20035;-53
2021/12/12 11:59:04;;;;;;;14.90;8.23;;;5.60;99.90;;;;;;4992489;28;20387;-52
2021/12/12 12:01:46;;;;;;;16.52;8.52;;;5.60;99.90;;;;;;4986008;28;20033;-51
2021/12/12 12:04:22;;;;;;;19.25;6.72;;;5.70;99.90;;;;;;4993176;28;20027;-49
2021/12/12 12:07:25;;;;;;;8.35;5.85;;;5.60;99.90;;;;;;4994139;28;20023;-54
2021/12/12 12:10:28;;;;;;;10.32;5.47;;;5.60;99.90;;;;;;4994050;28;20045;-53
2021/12/12 12:13:11;;;;;;;13.68;6.75;;;5.60;99.90;;;;;;4994520;28;20030;-54
2021/12/12 12:15:49;;;;;;;9.73;5.18;;;5.60;99.90;;;;;;4994560;28;20041;-54
2021/12/12 12:18:41;;;;;;;11.65;5.50;;;5.60;99.90;;;;;;5007646;28;20079;-53
2021/12/12 12:21:18;;;;;;;7.32;4.78;;;5.60;99.90;;;;;;4983479;28;20435;-53
2021/12/12 12:26:51;;;;;;;14.65;5.60;;;5.60;99.90;;;;;;4977446;28;20042;-53
2021/12/12 12:29:31;;;;;;;12.80;5.22;;;5.70;99.90;;;;;;4994914;28;20439;-55
2021/12/12 12:32:35;;;;;;;8.10;5.05;;;5.70;99.90;;;;;;4975824;28;20073;-54
2021/12/12 12:35:37;;;;;;;11.82;5.32;;;5.70;99.90;;;;;;4979566;28;20045;-54
2021/12/12 12:38:40;;;;;;;11.25;5.65;;;5.60;99.90;;;;;;4994319;28;20029;-52
2021/12/12 12:41:28;;;;;;;10.98;5.80;;;5.60;99.90;;;;;;4994748;28;20029;-53
2021/12/12 12:44:41;;;;;;;9.23;5.72;;;5.70;99.90;;;;;;4994321;28;20038;-49
2021/12/12 12:47:51;;;;;;;14.63;6.40;;;5.70;99.90;;;;;;4974987;28;20389;-51
2021/12/12 12:50:47;;;;;;;12.43;6.15;;;5.70;99.90;;;;;;4974753;28;20042;-49
2021/12/12 12:53:40;;;;;;;11.27;6.25;;;5.70;99.90;;;;;;4992959;28;20096;-53
2021/12/12 12:56:21;;;;;;;23.95;6.63;;;5.60;99.90;;;;;;4990979;28;20102;-50
2021/12/12 12:59:27;;;;;;;13.35;6.15;;;5.70;99.90;;;;;;4994465;28;20518;-53
2021/12/12 13:02:16;;;;;;;14.07;6.22;;;5.70;99.90;;;;;;4991759;28;20035;-48
2021/12/12 13:04:58;;;;;;;19.63;6.38;;;5.70;99.90;;;;;;4987585;28;20023;-51
2021/12/12 13:08:00;;;;;;;11.27;6.13;;;5.70;99.90;;;;;;4983188;28;20034;-50
2021/12/12 13:10:30;;;;;;;11.02;6.22;;;5.70;99.90;;;;;;4992782;28;20121;-53
2021/12/12 13:13:07;;;;;;;55.50;33.20;;;5.80;99.90;;;;;;4994127;28;20156;-54
2021/12/12 13:15:54;;;;;;;48.63;25.35;;;5.80;99.90;;;;;;4994305;28;20085;-54
2021/12/12 13:18:25;;;;;;;12.80;5.90;;;5.80;99.90;;;;;;4995355;28;20065;-55
2021/12/12 13:21:24;;;;;;;9.90;5.57;;;5.90;99.90;;;;;;4994634;28;20027;-54
2021/12/12 13:24:27;;;;;;;12.35;4.95;;;5.90;99.90;;;;;;4993933;28;20019;-54
2021/12/12 13:27:49;;;;;;;7.70;4.85;;;5.90;99.90;;;;;;4994278;28;20029;-52
2021/12/12 13:30:05;;;;;;;10.07;4.35;;;5.80;99.90;;;;;;4993914;28;20041;-53
2021/12/12 13:32:57;;;;;;;7.15;4.43;;;5.80;99.90;;;;;;4994879;28;20042;-54
2021/12/12 13:35:29;;;;;;;9.98;5.18;;;5.80;99.90;;;;;;4993826;28;20513;-55
2021/12/12 13:38:05;;;;;;;11.43;4.82;;;5.70;99.90;;;;;;4993681;28;20034;-54
2021/12/12 13:40:53;;;;;;;9.75;4.88;;;5.70;99.90;;;;;;4993663;28;20391;-54
2021/12/12 13:43:56;;;;;;;12.02;5.63;;;5.70;99.90;;;;;;4993890;28;20042;-54
2021/12/12 13:46:21;;;;;;;7.15;5.28;;;5.70;99.90;;;;;;4992226;28;20035;-55
2021/12/12 13:48:56;;;;;;;13.35;5.38;;;5.60;99.90;;;;;;4993450;28;20451;-51